sensor_id;sensor_type;location;lat;lon;timestamp;P1;durP1;ratioP1;P2;durP2;ratioP2
27893;SDS011;15240;50.812;4.792;2023-04-24T00:02:14;32.80;;;19.93;;
27893;SDS011;15240;50.812;4.792;2023-04-24T00:04:41;30.77;;;20.20;;
27893;SDS011;15240;50.812;4.792;2023-04-24T00:07:10;34.83;;;19.60;;
27893;SDS011;15240;50.812;4.792;2023-04-24T00:09:36;30.50;;;19.93;;
27893;SDS011;15240;50.812;4.792;2023-04-24T00:12:02;33.27;;;19.07;;
27893;SDS011;15240;50.812;4.792;2023-04-24T00:14:30;31.77;;;18.63;;
27893;SDS011;15240;50.812;4.792;2023-04-24T00:16:56;34.13;;;20.37;;
27893;SDS011;15240;50.812;4.792;2023-04-24T00:19:22;32.27;;;20.70;;
27893;SDS011;15240;50.812;4.792;2023-04-24T00:21:48;36.97;;;21.17;;
27893;SDS011;15240;50.812;4.792;2023-04-24T00:24:15;31.63;;;19.43;;
27893;SDS011;15240;50.812;4.792;2023-04-24T00:26:41;33.30;;;20.97;;
27893;SDS011;15240;50.812;4.792;2023-04-24T00:29:07;33.27;;;21.10;;
27893;SDS011;15240;50.812;4.792;2023-04-24T00:31:33;34.87;;;21.33;;
27893;SDS011;15240;50.812;4.792;2023-04-24T00:34:00;30.20;;;19.60;;
27893;SDS011;15240;50.812;4.792;2023-04-24T00:36:27;37.77;;;20.77;;
27893;SDS011;15240;50.812;4.792;2023-04-24T00:38:53;37.17;;;21.17;;
27893;SDS011;15240;50.812;4.792;2023-04-24T00:41:20;31.10;;;20.13;;
27893;SDS011;15240;50.812;4.792;2023-04-24T00:43:46;30.03;;;19.40;;
27893;SDS011;15240;50.812;4.792;2023-04-24T00:46:13;32.33;;;20.30;;
27893;SDS011;15240;50.812;4.792;2023-04-24T00:48:39;33.77;;;19.90;;
27893;SDS011;15240;50.812;4.792;2023-04-24T00:51:05;37.43;;;19.90;;
27893;SDS011;15240;50.812;4.792;2023-04-24T00:53:31;29.77;;;19.03;;
27893;SDS011;15240;50.812;4.792;2023-04-24T00:55:57;33.70;;;19.57;;
27893;SDS011;15240;50.812;4.792;2023-04-24T00:58:24;35.30;;;19.30;;
27893;SDS011;15240;50.812;4.792;2023-04-24T01:00:50;37.63;;;20.03;;
27893;SDS011;15240;50.812;4.792;2023-04-24T01:03:19;30.27;;;19.33;;
27893;SDS011;15240;50.812;4.792;2023-04-24T01:05:45;30.37;;;19.03;;
27893;SDS011;15240;50.812;4.792;2023-04-24T01:08:12;33.63;;;19.37;;
27893;SDS011;15240;50.812;4.792;2023-04-24T01:10:38;33.23;;;20.23;;
27893;SDS011;15240;50.812;4.792;2023-04-24T01:13:04;32.40;;;19.53;;
27893;SDS011;15240;50.812;4.792;2023-04-24T01:15:30;31.60;;;19.43;;
27893;SDS011;15240;50.812;4.792;2023-04-24T01:17:56;39.07;;;21.13;;
27893;SDS011;15240;50.812;4.792;2023-04-24T01:20:23;35.53;;;20.13;;
27893;SDS011;15240;50.812;4.792;2023-04-24T01:22:51;35.80;;;21.10;;
27893;SDS011;15240;50.812;4.792;2023-04-24T01:25:18;37.67;;;21.50;;
27893;SDS011;15240;50.812;4.792;2023-04-24T01:27:44;37.93;;;21.20;;
27893;SDS011;15240;50.812;4.792;2023-04-24T01:30:10;32.23;;;20.60;;
27893;SDS011;15240;50.812;4.792;2023-04-24T01:32:37;36.00;;;21.90;;
27893;SDS011;15240;50.812;4.792;2023-04-24T01:35:03;33.03;;;19.73;;
27893;SDS011;15240;50.812;4.792;2023-04-24T01:37:29;37.07;;;21.37;;
27893;SDS011;15240;50.812;4.792;2023-04-24T01:39:57;36.53;;;21.80;;
27893;SDS011;15240;50.812;4.792;2023-04-24T01:42:23;39.23;;;21.87;;
27893;SDS011;15240;50.812;4.792;2023-04-24T01:44:49;42.23;;;22.47;;
27893;SDS011;15240;50.812;4.792;2023-04-24T01:47:16;33.43;;;21.20;;
27893;SDS011;15240;50.812;4.792;2023-04-24T01:49:42;35.10;;;20.73;;
27893;SDS011;15240;50.812;4.792;2023-04-24T01:52:09;34.60;;;21.43;;
27893;SDS011;15240;50.812;4.792;2023-04-24T01:54:35;35.10;;;19.00;;
27893;SDS011;15240;50.812;4.792;2023-04-24T01:57:01;26.13;;;18.33;;
27893;SDS011;15240;50.812;4.792;2023-04-24T01:59:27;26.73;;;17.67;;
27893;SDS011;15240;50.812;4.792;2023-04-24T02:01:55;30.53;;;17.20;;
27893;SDS011;15240;50.812;4.792;2023-04-24T02:04:21;27.37;;;16.73;;
27893;SDS011;15240;50.812;4.792;2023-04-24T02:06:47;27.27;;;17.00;;
27893;SDS011;15240;50.812;4.792;2023-04-24T02:09:13;28.63;;;16.93;;
27893;SDS011;15240;50.812;4.792;2023-04-24T02:11:39;24.47;;;17.07;;
27893;SDS011;15240;50.812;4.792;2023-04-24T02:14:05;30.53;;;18.57;;
27893;SDS011;15240;50.812;4.792;2023-04-24T02:16:31;29.50;;;19.93;;
27893;SDS011;15240;50.812;4.792;2023-04-24T02:18:58;35.27;;;20.30;;
27893;SDS011;15240;50.812;4.792;2023-04-24T02:21:24;36.00;;;22.00;;
27893;SDS011;15240;50.812;4.792;2023-04-24T02:23:50;38.37;;;21.67;;
27893;SDS011;15240;50.812;4.792;2023-04-24T02:26:16;34.43;;;21.73;;
27893;SDS011;15240;50.812;4.792;2023-04-24T02:28:43;38.67;;;23.63;;
27893;SDS011;15240;50.812;4.792;2023-04-24T02:31:09;40.30;;;23.30;;
27893;SDS011;15240;50.812;4.792;2023-04-24T02:33:35;39.00;;;23.57;;
27893;SDS011;15240;50.812;4.792;2023-04-24T02:36:02;41.80;;;24.53;;
27893;SDS011;15240;50.812;4.792;2023-04-24T02:38:28;41.73;;;24.00;;
27893;SDS011;15240;50.812;4.792;2023-04-24T02:40:55;41.50;;;23.03;;
27893;SDS011;15240;50.812;4.792;2023-04-24T02:43:21;37.87;;;24.10;;
27893;SDS011;15240;50.812;4.792;2023-04-24T02:45:47;39.87;;;24.40;;
27893;SDS011;15240;50.812;4.792;2023-04-24T02:48:13;44.77;;;24.20;;
27893;SDS011;15240;50.812;4.792;2023-04-24T02:50:40;37.40;;;24.00;;
27893;SDS011;15240;50.812;4.792;2023-04-24T02:53:06;38.93;;;24.00;;
27893;SDS011;15240;50.812;4.792;2023-04-24T02:55:32;40.10;;;25.03;;
27893;SDS011;15240;50.812;4.792;2023-04-24T02:57:58;40.63;;;24.00;;
27893;SDS011;15240;50.812;4.792;2023-04-24T03:00:25;39.63;;;23.73;;
27893;SDS011;15240;50.812;4.792;2023-04-24T03:02:51;41.57;;;23.23;;
27893;SDS011;15240;50.812;4.792;2023-04-24T03:05:17;40.13;;;23.10;;
27893;SDS011;15240;50.812;4.792;2023-04-24T03:07:43;38.23;;;23.97;;
27893;SDS011;15240;50.812;4.792;2023-04-24T03:10:10;37.67;;;22.53;;
27893;SDS011;15240;50.812;4.792;2023-04-24T03:12:36;41.80;;;22.93;;
27893;SDS011;15240;50.812;4.792;2023-04-24T03:15:02;39.90;;;22.17;;
27893;SDS011;15240;50.812;4.792;2023-04-24T03:17:28;37.17;;;22.20;;
27893;SDS011;15240;50.812;4.792;2023-04-24T03:19:55;33.30;;;20.83;;
27893;SDS011;15240;50.812;4.792;2023-04-24T03:22:21;33.53;;;20.40;;
27893;SDS011;15240;50.812;4.792;2023-04-24T03:24:47;35.60;;;21.40;;
27893;SDS011;15240;50.812;4.792;2023-04-24T03:27:13;37.07;;;22.10;;
27893;SDS011;15240;50.812;4.792;2023-04-24T03:29:39;35.83;;;21.37;;
27893;SDS011;15240;50.812;4.792;2023-04-24T03:32:06;33.90;;;22.00;;
27893;SDS011;15240;50.812;4.792;2023-04-24T03:34:32;39.73;;;22.47;;
27893;SDS011;15240;50.812;4.792;2023-04-24T03:36:58;37.83;;;21.87;;
27893;SDS011;15240;50.812;4.792;2023-04-24T03:39:24;39.47;;;21.17;;
27893;SDS011;15240;50.812;4.792;2023-04-24T03:41:50;34.43;;;21.53;;
27893;SDS011;15240;50.812;4.792;2023-04-24T03:44:16;37.33;;;22.47;;
27893;SDS011;15240;50.812;4.792;2023-04-24T03:46:42;38.90;;;22.30;;
27893;SDS011;15240;50.812;4.792;2023-04-24T03:49:08;38.07;;;22.00;;
27893;SDS011;15240;50.812;4.792;2023-04-24T03:51:34;40.57;;;22.27;;
27893;SDS011;15240;50.812;4.792;2023-04-24T03:54:01;37.83;;;23.17;;
27893;SDS011;15240;50.812;4.792;2023-04-24T03:56:28;38.83;;;22.70;;
27893;SDS011;15240;50.812;4.792;2023-04-24T03:58:54;38.70;;;23.67;;
27893;SDS011;15240;50.812;4.792;2023-04-24T04:01:20;36.43;;;21.33;;
27893;SDS011;15240;50.812;4.792;2023-04-24T04:03:46;32.13;;;20.70;;
27893;SDS011;15240;50.812;4.792;2023-04-24T04:06:12;36.53;;;21.63;;
27893;SDS011;15240;50.812;4.792;2023-04-24T04:08:38;36.93;;;21.03;;
27893;SDS011;15240;50.812;4.792;2023-04-24T04:11:04;37.27;;;18.90;;
27893;SDS011;15240;50.812;4.792;2023-04-24T04:13:30;31.77;;;18.83;;
27893;SDS011;15240;50.812;4.792;2023-04-24T04:15:57;27.33;;;16.87;;
27893;SDS011;15240;50.812;4.792;2023-04-24T04:18:23;30.83;;;16.57;;
27893;SDS011;15240;50.812;4.792;2023-04-24T04:20:49;28.97;;;15.27;;
27893;SDS011;15240;50.812;4.792;2023-04-24T04:23:15;27.30;;;15.67;;
27893;SDS011;15240;50.812;4.792;2023-04-24T04:25:41;28.20;;;15.87;;
27893;SDS011;15240;50.812;4.792;2023-04-24T04:28:07;23.93;;;14.40;;
27893;SDS011;15240;50.812;4.792;2023-04-24T04:30:33;23.83;;;14.67;;
27893;SDS011;15240;50.812;4.792;2023-04-24T04:32:59;24.17;;;14.50;;
27893;SDS011;15240;50.812;4.792;2023-04-24T04:35:26;25.13;;;14.57;;
27893;SDS011;15240;50.812;4.792;2023-04-24T04:37:52;27.00;;;14.20;;
27893;SDS011;15240;50.812;4.792;2023-04-24T04:40:18;23.17;;;14.00;;
27893;SDS011;15240;50.812;4.792;2023-04-24T04:42:44;26.33;;;13.70;;
27893;SDS011;15240;50.812;4.792;2023-04-24T04:45:11;20.20;;;12.87;;
27893;SDS011;15240;50.812;4.792;2023-04-24T04:47:37;23.10;;;12.77;;
27893;SDS011;15240;50.812;4.792;2023-04-24T04:50:04;23.53;;;13.07;;
27893;SDS011;15240;50.812;4.792;2023-04-24T04:52:31;21.37;;;12.73;;
27893;SDS011;15240;50.812;4.792;2023-04-24T04:54:57;17.60;;;10.83;;
27893;SDS011;15240;50.812;4.792;2023-04-24T04:57:23;16.40;;;11.87;;
27893;SDS011;15240;50.812;4.792;2023-04-24T04:59:49;16.27;;;11.47;;
27893;SDS011;15240;50.812;4.792;2023-04-24T05:02:15;16.83;;;10.60;;
27893;SDS011;15240;50.812;4.792;2023-04-24T05:04:41;20.53;;;11.63;;
27893;SDS011;15240;50.812;4.792;2023-04-24T05:07:07;16.93;;;11.23;;
27893;SDS011;15240;50.812;4.792;2023-04-24T05:09:33;17.67;;;11.53;;
27893;SDS011;15240;50.812;4.792;2023-04-24T05:11:59;17.27;;;11.00;;
27893;SDS011;15240;50.812;4.792;2023-04-24T05:14:27;17.00;;;10.47;;
27893;SDS011;15240;50.812;4.792;2023-04-24T05:16:53;18.77;;;10.13;;
27893;SDS011;15240;50.812;4.792;2023-04-24T05:19:19;15.30;;;9.40;;
27893;SDS011;15240;50.812;4.792;2023-04-24T05:21:45;15.90;;;10.57;;
27893;SDS011;15240;50.812;4.792;2023-04-24T05:24:11;17.10;;;10.53;;
27893;SDS011;15240;50.812;4.792;2023-04-24T05:26:37;16.53;;;10.37;;
27893;SDS011;15240;50.812;4.792;2023-04-24T05:29:03;17.40;;;10.83;;
27893;SDS011;15240;50.812;4.792;2023-04-24T05:31:30;19.50;;;11.43;;
27893;SDS011;15240;50.812;4.792;2023-04-24T05:33:56;17.77;;;11.93;;
27893;SDS011;15240;50.812;4.792;2023-04-24T05:36:22;18.40;;;11.87;;
27893;SDS011;15240;50.812;4.792;2023-04-24T05:38:48;18.37;;;11.90;;
27893;SDS011;15240;50.812;4.792;2023-04-24T05:41:14;19.37;;;11.43;;
27893;SDS011;15240;50.812;4.792;2023-04-24T05:43:40;17.47;;;11.20;;
27893;SDS011;15240;50.812;4.792;2023-04-24T05:46:06;19.73;;;11.27;;
27893;SDS011;15240;50.812;4.792;2023-04-24T05:48:32;19.20;;;12.33;;
27893;SDS011;15240;50.812;4.792;2023-04-24T05:50:58;23.30;;;12.60;;
27893;SDS011;15240;50.812;4.792;2023-04-24T05:53:24;20.70;;;12.83;;
27893;SDS011;15240;50.812;4.792;2023-04-24T05:55:50;20.90;;;12.67;;
27893;SDS011;15240;50.812;4.792;2023-04-24T05:58:16;21.67;;;13.67;;
27893;SDS011;15240;50.812;4.792;2023-04-24T06:00:43;23.47;;;14.00;;
27893;SDS011;15240;50.812;4.792;2023-04-24T06:03:11;23.50;;;13.57;;
27893;SDS011;15240;50.812;4.792;2023-04-24T06:05:37;25.23;;;14.83;;
27893;SDS011;15240;50.812;4.792;2023-04-24T06:08:03;27.77;;;14.57;;
27893;SDS011;15240;50.812;4.792;2023-04-24T06:10:29;25.50;;;14.80;;
27893;SDS011;15240;50.812;4.792;2023-04-24T06:12:55;26.07;;;15.03;;
27893;SDS011;15240;50.812;4.792;2023-04-24T06:15:25;24.40;;;15.00;;
27893;SDS011;15240;50.812;4.792;2023-04-24T06:17:51;25.73;;;15.40;;
27893;SDS011;15240;50.812;4.792;2023-04-24T06:20:17;28.37;;;15.77;;
27893;SDS011;15240;50.812;4.792;2023-04-24T06:22:43;28.37;;;15.47;;
27893;SDS011;15240;50.812;4.792;2023-04-24T06:25:09;24.70;;;15.27;;
27893;SDS011;15240;50.812;4.792;2023-04-24T06:27:35;28.63;;;16.27;;
27893;SDS011;15240;50.812;4.792;2023-04-24T06:30:01;31.00;;;15.60;;
27893;SDS011;15240;50.812;4.792;2023-04-24T06:32:27;26.93;;;16.53;;
27893;SDS011;15240;50.812;4.792;2023-04-24T06:34:53;30.40;;;16.77;;
27893;SDS011;15240;50.812;4.792;2023-04-24T06:37:20;29.60;;;16.53;;
27893;SDS011;15240;50.812;4.792;2023-04-24T06:39:46;31.37;;;17.90;;
27893;SDS011;15240;50.812;4.792;2023-04-24T06:42:12;27.47;;;16.70;;
27893;SDS011;15240;50.812;4.792;2023-04-24T06:44:38;28.77;;;17.57;;
27893;SDS011;15240;50.812;4.792;2023-04-24T06:47:09;30.40;;;17.87;;
27893;SDS011;15240;50.812;4.792;2023-04-24T06:49:37;33.20;;;17.23;;
27893;SDS011;15240;50.812;4.792;2023-04-24T06:52:03;31.87;;;18.13;;
27893;SDS011;15240;50.812;4.792;2023-04-24T06:54:30;29.50;;;17.83;;
27893;SDS011;15240;50.812;4.792;2023-04-24T06:56:56;35.50;;;17.87;;
27893;SDS011;15240;50.812;4.792;2023-04-24T06:59:23;30.33;;;17.87;;
27893;SDS011;15240;50.812;4.792;2023-04-24T07:01:49;31.77;;;18.23;;
27893;SDS011;15240;50.812;4.792;2023-04-24T07:04:16;34.30;;;19.00;;
27893;SDS011;15240;50.812;4.792;2023-04-24T07:06:42;33.23;;;19.17;;
27893;SDS011;15240;50.812;4.792;2023-04-24T07:09:08;33.37;;;18.50;;
27893;SDS011;15240;50.812;4.792;2023-04-24T07:11:34;36.80;;;20.20;;
27893;SDS011;15240;50.812;4.792;2023-04-24T07:14:01;34.90;;;18.57;;
27893;SDS011;15240;50.812;4.792;2023-04-24T07:16:27;33.67;;;19.80;;
27893;SDS011;15240;50.812;4.792;2023-04-24T07:18:53;36.90;;;19.80;;
27893;SDS011;15240;50.812;4.792;2023-04-24T07:21:20;33.37;;;19.77;;
27893;SDS011;15240;50.812;4.792;2023-04-24T07:23:46;36.80;;;19.80;;
27893;SDS011;15240;50.812;4.792;2023-04-24T07:26:12;36.10;;;20.73;;
27893;SDS011;15240;50.812;4.792;2023-04-24T07:28:39;43.30;;;21.00;;
27893;SDS011;15240;50.812;4.792;2023-04-24T07:31:06;36.43;;;21.53;;
27893;SDS011;15240;50.812;4.792;2023-04-24T07:33:32;38.63;;;20.33;;
27893;SDS011;15240;50.812;4.792;2023-04-24T07:35:58;38.47;;;21.03;;
27893;SDS011;15240;50.812;4.792;2023-04-24T07:38:24;35.70;;;20.33;;
27893;SDS011;15240;50.812;4.792;2023-04-24T07:40:51;37.33;;;21.53;;
27893;SDS011;15240;50.812;4.792;2023-04-24T07:43:17;39.67;;;21.73;;
27893;SDS011;15240;50.812;4.792;2023-04-24T07:45:43;34.83;;;19.73;;
27893;SDS011;15240;50.812;4.792;2023-04-24T07:48:09;34.43;;;20.33;;
27893;SDS011;15240;50.812;4.792;2023-04-24T07:50:35;34.90;;;19.20;;
27893;SDS011;15240;50.812;4.792;2023-04-24T07:53:01;36.30;;;18.97;;
27893;SDS011;15240;50.812;4.792;2023-04-24T07:55:27;29.00;;;18.60;;
27893;SDS011;15240;50.812;4.792;2023-04-24T07:57:53;34.77;;;19.43;;
27893;SDS011;15240;50.812;4.792;2023-04-24T08:00:20;32.43;;;18.10;;
27893;SDS011;15240;50.812;4.792;2023-04-24T08:02:47;35.50;;;19.07;;
27893;SDS011;15240;50.812;4.792;2023-04-24T08:05:13;28.40;;;17.17;;
27893;SDS011;15240;50.812;4.792;2023-04-24T08:07:39;34.30;;;18.13;;
27893;SDS011;15240;50.812;4.792;2023-04-24T08:10:07;33.03;;;19.00;;
27893;SDS011;15240;50.812;4.792;2023-04-24T08:12:33;27.33;;;17.37;;
27893;SDS011;15240;50.812;4.792;2023-04-24T08:14:59;28.87;;;16.30;;
27893;SDS011;15240;50.812;4.792;2023-04-24T08:17:25;27.70;;;16.10;;
27893;SDS011;15240;50.812;4.792;2023-04-24T08:19:51;25.20;;;14.53;;
27893;SDS011;15240;50.812;4.792;2023-04-24T08:22:24;25.10;;;13.97;;
27893;SDS011;15240;50.812;4.792;2023-04-24T08:24:50;22.43;;;12.60;;
27893;SDS011;15240;50.812;4.792;2023-04-24T08:27:16;21.50;;;11.40;;
27893;SDS011;15240;50.812;4.792;2023-04-24T08:29:42;20.80;;;11.17;;
27893;SDS011;15240;50.812;4.792;2023-04-24T08:32:08;20.20;;;10.93;;
27893;SDS011;15240;50.812;4.792;2023-04-24T08:34:34;18.47;;;10.27;;
27893;SDS011;15240;50.812;4.792;2023-04-24T08:37:00;17.80;;;10.50;;
27893;SDS011;15240;50.812;4.792;2023-04-24T08:39:26;18.30;;;10.00;;
27893;SDS011;15240;50.812;4.792;2023-04-24T08:41:53;19.03;;;10.47;;
27893;SDS011;15240;50.812;4.792;2023-04-24T08:44:19;18.63;;;9.80;;
27893;SDS011;15240;50.812;4.792;2023-04-24T08:46:46;18.67;;;9.70;;
27893;SDS011;15240;50.812;4.792;2023-04-24T08:49:13;16.03;;;10.47;;
27893;SDS011;15240;50.812;4.792;2023-04-24T08:51:41;18.70;;;10.10;;
27893;SDS011;15240;50.812;4.792;2023-04-24T08:54:08;19.20;;;10.67;;
27893;SDS011;15240;50.812;4.792;2023-04-24T08:56:34;24.00;;;11.80;;
27893;SDS011;15240;50.812;4.792;2023-04-24T08:59:05;21.43;;;10.73;;
27893;SDS011;15240;50.812;4.792;2023-04-24T09:01:32;19.33;;;11.40;;
27893;SDS011;15240;50.812;4.792;2023-04-24T09:04:00;20.00;;;10.70;;
27893;SDS011;15240;50.812;4.792;2023-04-24T09:06:27;17.27;;;9.63;;
27893;SDS011;15240;50.812;4.792;2023-04-24T09:08:54;19.67;;;9.37;;
27893;SDS011;15240;50.812;4.792;2023-04-24T09:11:21;15.43;;;8.50;;
27893;SDS011;15240;50.812;4.792;2023-04-24T09:13:49;16.23;;;8.57;;
27893;SDS011;15240;50.812;4.792;2023-04-24T09:16:15;20.10;;;8.37;;
27893;SDS011;15240;50.812;4.792;2023-04-24T09:18:49;13.87;;;7.53;;
27893;SDS011;15240;50.812;4.792;2023-04-24T09:21:22;14.03;;;7.20;;
27893;SDS011;15240;50.812;4.792;2023-04-24T09:23:58;16.03;;;7.43;;
27893;SDS011;15240;50.812;4.792;2023-04-24T09:26:25;12.17;;;6.93;;
27893;SDS011;15240;50.812;4.792;2023-04-24T09:28:51;13.47;;;6.80;;
27893;SDS011;15240;50.812;4.792;2023-04-24T09:31:19;14.67;;;6.53;;
27893;SDS011;15240;50.812;4.792;2023-04-24T09:36:42;14.83;;;6.50;;
27893;SDS011;15240;50.812;4.792;2023-04-24T09:39:13;12.70;;;6.53;;
27893;SDS011;15240;50.812;4.792;2023-04-24T09:44:12;15.73;;;6.03;;
27893;SDS011;15240;50.812;4.792;2023-04-24T09:46:39;14.53;;;6.83;;
27893;SDS011;15240;50.812;4.792;2023-04-24T09:49:08;11.77;;;6.10;;
27893;SDS011;15240;50.812;4.792;2023-04-24T09:51:36;10.77;;;5.70;;
27893;SDS011;15240;50.812;4.792;2023-04-24T09:54:03;14.80;;;5.90;;
27893;SDS011;15240;50.812;4.792;2023-04-24T09:56:32;10.83;;;5.17;;
27893;SDS011;15240;50.812;4.792;2023-04-24T09:59:05;12.40;;;6.00;;
27893;SDS011;15240;50.812;4.792;2023-04-24T10:01:32;10.50;;;5.23;;
27893;SDS011;15240;50.812;4.792;2023-04-24T10:03:58;9.27;;;5.37;;
27893;SDS011;15240;50.812;4.792;2023-04-24T10:06:33;10.17;;;5.97;;
27893;SDS011;15240;50.812;4.792;2023-04-24T10:09:00;12.33;;;5.80;;
27893;SDS011;15240;50.812;4.792;2023-04-24T10:11:26;12.63;;;6.03;;
27893;SDS011;15240;50.812;4.792;2023-04-24T10:13:53;12.20;;;5.70;;
27893;SDS011;15240;50.812;4.792;2023-04-24T10:16:20;13.57;;;5.47;;
27893;SDS011;15240;50.812;4.792;2023-04-24T10:18:47;12.77;;;5.40;;
27893;SDS011;15240;50.812;4.792;2023-04-24T10:21:14;11.67;;;5.47;;
27893;SDS011;15240;50.812;4.792;2023-04-24T10:23:40;8.70;;;5.23;;
27893;SDS011;15240;50.812;4.792;2023-04-24T10:26:10;9.60;;;5.10;;
27893;SDS011;15240;50.812;4.792;2023-04-24T10:28:43;9.27;;;5.20;;
27893;SDS011;15240;50.812;4.792;2023-04-24T10:31:10;10.90;;;5.07;;
27893;SDS011;15240;50.812;4.792;2023-04-24T10:33:37;10.77;;;5.30;;
27893;SDS011;15240;50.812;4.792;2023-04-24T10:36:06;9.70;;;4.73;;
27893;SDS011;15240;50.812;4.792;2023-04-24T10:38:32;10.47;;;5.37;;
27893;SDS011;15240;50.812;4.792;2023-04-24T10:41:09;10.00;;;5.00;;
27893;SDS011;15240;50.812;4.792;2023-04-24T10:43:41;11.07;;;5.33;;
27893;SDS011;15240;50.812;4.792;2023-04-24T10:46:07;10.13;;;4.70;;
27893;SDS011;15240;50.812;4.792;2023-04-24T10:48:35;10.27;;;4.73;;
27893;SDS011;15240;50.812;4.792;2023-04-24T10:51:01;10.70;;;4.90;;
27893;SDS011;15240;50.812;4.792;2023-04-24T10:53:28;9.50;;;4.70;;
27893;SDS011;15240;50.812;4.792;2023-04-24T10:55:58;10.17;;;4.87;;
27893;SDS011;15240;50.812;4.792;2023-04-24T10:58:26;9.60;;;4.90;;
27893;SDS011;15240;50.812;4.792;2023-04-24T11:01:00;8.87;;;4.87;;
27893;SDS011;15240;50.812;4.792;2023-04-24T11:05:58;13.87;;;4.97;;
27893;SDS011;15240;50.812;4.792;2023-04-24T11:08:25;11.80;;;5.70;;
27893;SDS011;15240;50.812;4.792;2023-04-24T11:13:24;10.67;;;5.40;;
27893;SDS011;15240;50.812;4.792;2023-04-24T11:19:36;11.90;;;5.50;;
27893;SDS011;15240;50.812;4.792;2023-04-24T11:21:41;10.20;;;5.03;;
27893;SDS011;15240;50.812;4.792;2023-04-24T11:26:48;12.10;;;5.27;;
27893;SDS011;15240;50.812;4.792;2023-04-24T11:29:17;9.50;;;5.50;;
27893;SDS011;15240;50.812;4.792;2023-04-24T11:31:45;9.33;;;5.27;;
27893;SDS011;15240;50.812;4.792;2023-04-24T11:34:15;8.30;;;5.40;;
27893;SDS011;15240;50.812;4.792;2023-04-24T11:36:45;8.57;;;5.30;;
27893;SDS011;15240;50.812;4.792;2023-04-24T11:39:12;9.53;;;5.70;;
27893;SDS011;15240;50.812;4.792;2023-04-24T11:41:38;10.17;;;5.80;;
27893;SDS011;15240;50.812;4.792;2023-04-24T11:44:06;10.10;;;5.57;;
27893;SDS011;15240;50.812;4.792;2023-04-24T11:46:32;11.53;;;6.03;;
27893;SDS011;15240;50.812;4.792;2023-04-24T11:48:58;12.83;;;5.77;;
27893;SDS011;15240;50.812;4.792;2023-04-24T11:51:25;10.43;;;5.77;;
27893;SDS011;15240;50.812;4.792;2023-04-24T11:53:55;10.13;;;5.43;;
27893;SDS011;15240;50.812;4.792;2023-04-24T11:56:22;9.80;;;5.90;;
27893;SDS011;15240;50.812;4.792;2023-04-24T11:58:51;11.47;;;5.77;;
27893;SDS011;15240;50.812;4.792;2023-04-24T12:01:20;10.73;;;6.00;;
27893;SDS011;15240;50.812;4.792;2023-04-24T12:03:47;10.77;;;6.10;;
27893;SDS011;15240;50.812;4.792;2023-04-24T12:06:13;11.13;;;6.50;;
27893;SDS011;15240;50.812;4.792;2023-04-24T12:08:39;11.00;;;6.00;;
27893;SDS011;15240;50.812;4.792;2023-04-24T12:11:06;10.83;;;6.00;;
27893;SDS011;15240;50.812;4.792;2023-04-24T12:13:33;13.50;;;6.10;;
27893;SDS011;15240;50.812;4.792;2023-04-24T12:16:00;11.23;;;5.67;;
27893;SDS011;15240;50.812;4.792;2023-04-24T12:18:27;9.80;;;6.20;;
27893;SDS011;15240;50.812;4.792;2023-04-24T12:21:14;7.57;;;5.33;;
27893;SDS011;15240;50.812;4.792;2023-04-24T12:23:42;9.33;;;5.83;;
27893;SDS011;15240;50.812;4.792;2023-04-24T12:26:08;8.70;;;5.70;;
27893;SDS011;15240;50.812;4.792;2023-04-24T12:28:35;7.90;;;6.00;;
27893;SDS011;15240;50.812;4.792;2023-04-24T12:31:01;10.27;;;6.50;;
27893;SDS011;15240;50.812;4.792;2023-04-24T12:33:27;12.13;;;6.73;;
27893;SDS011;15240;50.812;4.792;2023-04-24T12:35:59;8.37;;;6.33;;
27893;SDS011;15240;50.812;4.792;2023-04-24T12:38:27;8.07;;;6.20;;
27893;SDS011;15240;50.812;4.792;2023-04-24T12:41:02;9.63;;;6.50;;
27893;SDS011;15240;50.812;4.792;2023-04-24T12:43:29;9.77;;;6.53;;
27893;SDS011;15240;50.812;4.792;2023-04-24T12:45:55;10.50;;;6.70;;
27893;SDS011;15240;50.812;4.792;2023-04-24T12:48:21;8.93;;;6.20;;
27893;SDS011;15240;50.812;4.792;2023-04-24T12:50:48;8.53;;;6.40;;
27893;SDS011;15240;50.812;4.792;2023-04-24T12:53:14;8.13;;;6.27;;
27893;SDS011;15240;50.812;4.792;2023-04-24T12:55:41;6.43;;;5.07;;
27893;SDS011;15240;50.812;4.792;2023-04-24T12:58:07;7.93;;;5.43;;
27893;SDS011;15240;50.812;4.792;2023-04-24T13:00:33;10.10;;;5.90;;
27893;SDS011;15240;50.812;4.792;2023-04-24T13:03:00;8.07;;;5.53;;
27893;SDS011;15240;50.812;4.792;2023-04-24T13:05:26;5.90;;;5.10;;
27893;SDS011;15240;50.812;4.792;2023-04-24T13:07:52;6.63;;;5.10;;
27893;SDS011;15240;50.812;4.792;2023-04-24T13:10:18;8.10;;;6.33;;
27893;SDS011;15240;50.812;4.792;2023-04-24T13:12:45;8.97;;;5.50;;
27893;SDS011;15240;50.812;4.792;2023-04-24T13:15:11;7.97;;;5.50;;
27893;SDS011;15240;50.812;4.792;2023-04-24T13:17:37;8.80;;;5.50;;
27893;SDS011;15240;50.812;4.792;2023-04-24T13:20:04;8.10;;;5.20;;
27893;SDS011;15240;50.812;4.792;2023-04-24T13:22:30;8.90;;;4.80;;
27893;SDS011;15240;50.812;4.792;2023-04-24T13:24:56;6.93;;;4.93;;
27893;SDS011;15240;50.812;4.792;2023-04-24T13:27:23;8.80;;;5.20;;
27893;SDS011;15240;50.812;4.792;2023-04-24T13:29:49;8.53;;;5.37;;
27893;SDS011;15240;50.812;4.792;2023-04-24T13:32:16;8.57;;;5.13;;
27893;SDS011;15240;50.812;4.792;2023-04-24T13:34:42;10.93;;;5.40;;
27893;SDS011;15240;50.812;4.792;2023-04-24T13:37:08;9.07;;;5.17;;
27893;SDS011;15240;50.812;4.792;2023-04-24T13:39:34;6.67;;;4.87;;
27893;SDS011;15240;50.812;4.792;2023-04-24T13:42:00;8.17;;;5.00;;
27893;SDS011;15240;50.812;4.792;2023-04-24T13:44:26;6.60;;;4.63;;
27893;SDS011;15240;50.812;4.792;2023-04-24T13:46:53;7.60;;;4.03;;
27893;SDS011;15240;50.812;4.792;2023-04-24T13:49:21;6.60;;;4.67;;
27893;SDS011;15240;50.812;4.792;2023-04-24T13:51:49;7.27;;;4.73;;
27893;SDS011;15240;50.812;4.792;2023-04-24T13:54:15;7.40;;;4.23;;
27893;SDS011;15240;50.812;4.792;2023-04-24T13:56:42;7.87;;;4.07;;
27893;SDS011;15240;50.812;4.792;2023-04-24T13:59:12;7.63;;;3.83;;
27893;SDS011;15240;50.812;4.792;2023-04-24T14:01:38;6.97;;;4.53;;
27893;SDS011;15240;50.812;4.792;2023-04-24T14:04:04;6.23;;;3.90;;
27893;SDS011;15240;50.812;4.792;2023-04-24T14:06:30;5.90;;;3.80;;
27893;SDS011;15240;50.812;4.792;2023-04-24T14:08:57;5.07;;;3.50;;
27893;SDS011;15240;50.812;4.792;2023-04-24T14:11:23;7.53;;;3.30;;
27893;SDS011;15240;50.812;4.792;2023-04-24T14:13:49;6.90;;;4.40;;
27893;SDS011;15240;50.812;4.792;2023-04-24T14:16:15;6.67;;;4.13;;
27893;SDS011;15240;50.812;4.792;2023-04-24T14:18:41;6.13;;;3.80;;
27893;SDS011;15240;50.812;4.792;2023-04-24T14:21:07;7.63;;;4.20;;
27893;SDS011;15240;50.812;4.792;2023-04-24T14:23:33;5.90;;;4.03;;
27893;SDS011;15240;50.812;4.792;2023-04-24T14:25:59;6.50;;;3.70;;
27893;SDS011;15240;50.812;4.792;2023-04-24T14:28:26;6.63;;;3.40;;
27893;SDS011;15240;50.812;4.792;2023-04-24T14:30:52;6.10;;;3.83;;
27893;SDS011;15240;50.812;4.792;2023-04-24T14:33:18;7.13;;;3.63;;
27893;SDS011;15240;50.812;4.792;2023-04-24T14:35:45;8.60;;;3.90;;
27893;SDS011;15240;50.812;4.792;2023-04-24T14:38:11;6.77;;;4.23;;
27893;SDS011;15240;50.812;4.792;2023-04-24T14:40:37;8.20;;;4.03;;
27893;SDS011;15240;50.812;4.792;2023-04-24T14:43:04;10.47;;;4.00;;